sensor_id;sensor_type;location;lat;lon;timestamp;P1;durP1;ratioP1;P2;durP2;ratioP2
19024;SDS011;9645;51.448;6.260;2022-09-12T00:01:14;48.43;;;22.20;;
19024;SDS011;9645;51.448;6.260;2022-09-12T00:03:43;47.97;;;22.97;;
19024;SDS011;9645;51.448;6.260;2022-09-12T00:06:11;55.77;;;23.90;;
19024;SDS011;9645;51.448;6.260;2022-09-12T00:08:42;49.77;;;22.50;;
19024;SDS011;9645;51.448;6.260;2022-09-12T00:11:10;58.50;;;24.07;;
19024;SDS011;9645;51.448;6.260;2022-09-12T00:13:38;62.47;;;25.40;;
19024;SDS011;9645;51.448;6.260;2022-09-12T00:16:06;50.00;;;22.30;;
19024;SDS011;9645;51.448;6.260;2022-09-12T00:18:40;48.20;;;24.40;;
19024;SDS011;9645;51.448;6.260;2022-09-12T00:21:07;58.43;;;24.23;;
19024;SDS011;9645;51.448;6.260;2022-09-12T00:23:34;64.33;;;27.07;;
19024;SDS011;9645;51.448;6.260;2022-09-12T00:26:02;60.50;;;25.03;;
19024;SDS011;9645;51.448;6.260;2022-09-12T00:28:30;61.50;;;25.43;;
19024;SDS011;9645;51.448;6.260;2022-09-12T00:30:59;56.60;;;24.90;;
19024;SDS011;9645;51.448;6.260;2022-09-12T00:33:28;57.43;;;26.20;;
19024;SDS011;9645;51.448;6.260;2022-09-12T00:35:56;59.80;;;26.33;;
19024;SDS011;9645;51.448;6.260;2022-09-12T00:38:23;65.70;;;27.80;;
19024;SDS011;9645;51.448;6.260;2022-09-12T00:40:50;69.53;;;29.17;;
19024;SDS011;9645;51.448;6.260;2022-09-12T00:46:12;67.97;;;28.50;;
19024;SDS011;9645;51.448;6.260;2022-09-12T00:48:48;68.57;;;27.80;;
19024;SDS011;9645;51.448;6.260;2022-09-12T00:51:19;66.17;;;26.80;;
19024;SDS011;9645;51.448;6.260;2022-09-12T00:53:47;66.47;;;26.80;;
19024;SDS011;9645;51.448;6.260;2022-09-12T00:56:17;72.30;;;29.60;;
19024;SDS011;9645;51.448;6.260;2022-09-12T00:58:47;73.67;;;27.67;;
19024;SDS011;9645;51.448;6.260;2022-09-12T01:01:17;65.27;;;27.77;;
19024;SDS011;9645;51.448;6.260;2022-09-12T01:03:44;67.57;;;26.27;;
19024;SDS011;9645;51.448;6.260;2022-09-12T01:06:14;61.30;;;27.30;;
19024;SDS011;9645;51.448;6.260;2022-09-12T01:08:43;64.13;;;25.33;;
19024;SDS011;9645;51.448;6.260;2022-09-12T01:11:13;67.13;;;27.30;;
19024;SDS011;9645;51.448;6.260;2022-09-12T01:13:41;63.27;;;23.67;;
19024;SDS011;9645;51.448;6.260;2022-09-12T01:16:10;57.90;;;24.20;;
19024;SDS011;9645;51.448;6.260;2022-09-12T01:18:43;73.23;;;27.30;;
19024;SDS011;9645;51.448;6.260;2022-09-12T01:21:19;66.77;;;28.90;;
19024;SDS011;9645;51.448;6.260;2022-09-12T01:27:17;68.27;;;27.23;;
19024;SDS011;9645;51.448;6.260;2022-09-12T01:30:03;64.63;;;26.97;;
19024;SDS011;9645;51.448;6.260;2022-09-12T01:32:47;73.23;;;28.10;;
19024;SDS011;9645;51.448;6.260;2022-09-12T01:35:37;64.57;;;25.87;;
19024;SDS011;9645;51.448;6.260;2022-09-12T01:38:14;68.07;;;23.27;;
19024;SDS011;9645;51.448;6.260;2022-09-12T01:40:50;57.27;;;23.60;;
19024;SDS011;9645;51.448;6.260;2022-09-12T01:43:25;64.17;;;26.53;;
19024;SDS011;9645;51.448;6.260;2022-09-12T01:46:02;59.53;;;25.10;;
19024;SDS011;9645;51.448;6.260;2022-09-12T01:48:35;61.50;;;24.40;;
19024;SDS011;9645;51.448;6.260;2022-09-12T01:51:10;61.63;;;24.33;;
19024;SDS011;9645;51.448;6.260;2022-09-12T01:53:45;66.50;;;25.27;;
19024;SDS011;9645;51.448;6.260;2022-09-12T01:56:16;64.00;;;25.17;;
19024;SDS011;9645;51.448;6.260;2022-09-12T01:58:48;69.00;;;26.30;;
19024;SDS011;9645;51.448;6.260;2022-09-12T02:01:19;61.50;;;26.83;;
19024;SDS011;9645;51.448;6.260;2022-09-12T02:03:51;66.93;;;26.67;;
19024;SDS011;9645;51.448;6.260;2022-09-12T02:06:24;68.37;;;27.67;;
19024;SDS011;9645;51.448;6.260;2022-09-12T02:08:55;73.93;;;27.33;;
19024;SDS011;9645;51.448;6.260;2022-09-12T02:11:25;69.57;;;25.90;;
19024;SDS011;9645;51.448;6.260;2022-09-12T02:13:55;67.33;;;27.00;;
19024;SDS011;9645;51.448;6.260;2022-09-12T02:16:29;69.27;;;27.57;;
19024;SDS011;9645;51.448;6.260;2022-09-12T02:19:02;69.13;;;27.40;;
19024;SDS011;9645;51.448;6.260;2022-09-12T02:21:33;60.07;;;24.07;;
19024;SDS011;9645;51.448;6.260;2022-09-12T02:24:03;68.63;;;26.13;;
19024;SDS011;9645;51.448;6.260;2022-09-12T02:26:35;64.00;;;24.33;;
19024;SDS011;9645;51.448;6.260;2022-09-12T02:29:09;75.57;;;26.93;;
19024;SDS011;9645;51.448;6.260;2022-09-12T02:31:39;67.50;;;26.57;;
19024;SDS011;9645;51.448;6.260;2022-09-12T02:34:13;65.90;;;26.40;;
19024;SDS011;9645;51.448;6.260;2022-09-12T02:36:51;72.10;;;26.90;;
19024;SDS011;9645;51.448;6.260;2022-09-12T02:39:27;73.90;;;28.13;;
19024;SDS011;9645;51.448;6.260;2022-09-12T02:41:55;69.33;;;26.40;;
19024;SDS011;9645;51.448;6.260;2022-09-12T02:44:24;85.23;;;29.70;;
19024;SDS011;9645;51.448;6.260;2022-09-12T02:46:54;91.20;;;28.00;;
19024;SDS011;9645;51.448;6.260;2022-09-12T02:49:25;76.30;;;27.77;;
19024;SDS011;9645;51.448;6.260;2022-09-12T02:51:52;83.85;;;29.15;;
19024;SDS011;9645;51.448;6.260;2022-09-12T02:54:20;89.13;;;29.57;;
19024;SDS011;9645;51.448;6.260;2022-09-12T02:56:47;81.97;;;30.57;;
19024;SDS011;9645;51.448;6.260;2022-09-12T02:59:14;87.10;;;30.40;;
19024;SDS011;9645;51.448;6.260;2022-09-12T03:01:59;91.47;;;31.03;;
19024;SDS011;9645;51.448;6.260;2022-09-12T03:04:41;94.00;;;31.50;;
19024;SDS011;9645;51.448;6.260;2022-09-12T03:07:21;85.53;;;28.60;;
19024;SDS011;9645;51.448;6.260;2022-09-12T03:09:59;90.87;;;31.97;;
19024;SDS011;9645;51.448;6.260;2022-09-12T03:12:37;95.37;;;31.00;;
19024;SDS011;9645;51.448;6.260;2022-09-12T03:15:16;90.90;;;30.90;;
19024;SDS011;9645;51.448;6.260;2022-09-12T03:18:03;86.83;;;29.60;;
19024;SDS011;9645;51.448;6.260;2022-09-12T03:20:43;100.57;;;29.83;;
19024;SDS011;9645;51.448;6.260;2022-09-12T03:23:21;100.23;;;30.17;;
19024;SDS011;9645;51.448;6.260;2022-09-12T03:25:56;84.27;;;29.97;;
19024;SDS011;9645;51.448;6.260;2022-09-12T03:28:26;94.10;;;28.57;;
19024;SDS011;9645;51.448;6.260;2022-09-12T03:30:54;72.27;;;28.30;;
19024;SDS011;9645;51.448;6.260;2022-09-12T03:33:23;84.80;;;28.73;;
19024;SDS011;9645;51.448;6.260;2022-09-12T03:35:51;84.07;;;28.10;;
19024;SDS011;9645;51.448;6.260;2022-09-12T03:38:18;81.20;;;29.63;;
19024;SDS011;9645;51.448;6.260;2022-09-12T03:40:46;91.40;;;29.77;;
19024;SDS011;9645;51.448;6.260;2022-09-12T03:43:13;85.07;;;30.77;;
19024;SDS011;9645;51.448;6.260;2022-09-12T03:45:40;97.60;;;30.67;;
19024;SDS011;9645;51.448;6.260;2022-09-12T03:48:07;93.57;;;30.83;;
19024;SDS011;9645;51.448;6.260;2022-09-12T03:50:36;90.33;;;28.30;;
19024;SDS011;9645;51.448;6.260;2022-09-12T03:53:03;94.70;;;29.77;;
19024;SDS011;9645;51.448;6.260;2022-09-12T03:55:31;88.70;;;29.47;;
19024;SDS011;9645;51.448;6.260;2022-09-12T03:57:58;74.40;;;27.17;;
19024;SDS011;9645;51.448;6.260;2022-09-12T04:00:25;93.82;;;29.20;;
19024;SDS011;9645;51.448;6.260;2022-09-12T04:02:52;78.60;;;29.00;;
19024;SDS011;9645;51.448;6.260;2022-09-12T04:05:21;87.70;;;29.43;;
19024;SDS011;9645;51.448;6.260;2022-09-12T04:07:49;73.43;;;27.97;;
19024;SDS011;9645;51.448;6.260;2022-09-12T04:10:17;91.67;;;30.13;;
19024;SDS011;9645;51.448;6.260;2022-09-12T04:12:44;106.60;;;30.80;;
19024;SDS011;9645;51.448;6.260;2022-09-12T04:15:11;83.27;;;27.17;;
19024;SDS011;9645;51.448;6.260;2022-09-12T04:17:38;87.87;;;28.20;;
19024;SDS011;9645;51.448;6.260;2022-09-12T04:20:05;84.63;;;29.37;;
19024;SDS011;9645;51.448;6.260;2022-09-12T04:22:32;86.90;;;29.90;;
19024;SDS011;9645;51.448;6.260;2022-09-12T04:25:01;83.80;;;30.30;;
19024;SDS011;9645;51.448;6.260;2022-09-12T04:27:29;100.38;;;31.52;;
19024;SDS011;9645;51.448;6.260;2022-09-12T04:29:56;85.13;;;30.17;;
19024;SDS011;9645;51.448;6.260;2022-09-12T04:32:24;94.40;;;29.80;;
19024;SDS011;9645;51.448;6.260;2022-09-12T04:34:51;78.70;;;28.02;;
19024;SDS011;9645;51.448;6.260;2022-09-12T04:37:18;82.40;;;29.00;;
19024;SDS011;9645;51.448;6.260;2022-09-12T04:39:45;86.53;;;27.98;;
19024;SDS011;9645;51.448;6.260;2022-09-12T04:42:17;83.72;;;28.20;;
19024;SDS011;9645;51.448;6.260;2022-09-12T04:44:44;87.30;;;29.08;;
19024;SDS011;9645;51.448;6.260;2022-09-12T04:47:11;85.53;;;28.90;;
19024;SDS011;9645;51.448;6.260;2022-09-12T04:49:38;92.43;;;28.75;;
19024;SDS011;9645;51.448;6.260;2022-09-12T04:52:05;92.47;;;28.35;;
19024;SDS011;9645;51.448;6.260;2022-09-12T04:54:32;85.70;;;27.33;;
19024;SDS011;9645;51.448;6.260;2022-09-12T04:56:59;74.78;;;27.55;;
19024;SDS011;9645;51.448;6.260;2022-09-12T04:59:27;80.60;;;27.93;;
19024;SDS011;9645;51.448;6.260;2022-09-12T05:01:54;85.17;;;28.63;;
19024;SDS011;9645;51.448;6.260;2022-09-12T05:04:21;83.95;;;26.90;;
19024;SDS011;9645;51.448;6.260;2022-09-12T05:06:48;79.23;;;26.47;;
19024;SDS011;9645;51.448;6.260;2022-09-12T05:09:15;85.18;;;27.42;;
19024;SDS011;9645;51.448;6.260;2022-09-12T05:11:43;61.67;;;24.45;;
19024;SDS011;9645;51.448;6.260;2022-09-12T05:14:10;79.15;;;27.23;;
19024;SDS011;9645;51.448;6.260;2022-09-12T05:16:38;72.17;;;27.10;;
19024;SDS011;9645;51.448;6.260;2022-09-12T05:19:06;79.05;;;25.65;;
19024;SDS011;9645;51.448;6.260;2022-09-12T05:21:33;69.43;;;24.70;;
19024;SDS011;9645;51.448;6.260;2022-09-12T05:24:00;71.70;;;23.90;;
19024;SDS011;9645;51.448;6.260;2022-09-12T05:26:29;75.30;;;25.13;;
19024;SDS011;9645;51.448;6.260;2022-09-12T05:28:56;76.10;;;24.00;;
19024;SDS011;9645;51.448;6.260;2022-09-12T05:31:23;72.13;;;25.67;;
19024;SDS011;9645;51.448;6.260;2022-09-12T05:33:54;58.20;;;24.23;;
19024;SDS011;9645;51.448;6.260;2022-09-12T05:36:22;64.93;;;25.13;;
19024;SDS011;9645;51.448;6.260;2022-09-12T05:38:50;64.32;;;24.70;;
19024;SDS011;9645;51.448;6.260;2022-09-12T05:41:18;69.90;;;25.27;;
19024;SDS011;9645;51.448;6.260;2022-09-12T05:43:46;81.32;;;26.13;;
19024;SDS011;9645;51.448;6.260;2022-09-12T05:46:18;64.05;;;24.30;;
19024;SDS011;9645;51.448;6.260;2022-09-12T05:48:47;57.13;;;21.60;;
19024;SDS011;9645;51.448;6.260;2022-09-12T05:51:17;73.40;;;25.50;;
19024;SDS011;9645;51.448;6.260;2022-09-12T05:53:45;59.87;;;22.70;;
19024;SDS011;9645;51.448;6.260;2022-09-12T05:56:15;67.67;;;24.10;;
19024;SDS011;9645;51.448;6.260;2022-09-12T05:58:44;57.50;;;22.87;;
19024;SDS011;9645;51.448;6.260;2022-09-12T06:01:13;59.30;;;23.80;;
19024;SDS011;9645;51.448;6.260;2022-09-12T06:03:42;64.50;;;22.90;;
19024;SDS011;9645;51.448;6.260;2022-09-12T06:06:11;65.57;;;25.60;;
19024;SDS011;9645;51.448;6.260;2022-09-12T06:08:40;64.13;;;24.87;;
19024;SDS011;9645;51.448;6.260;2022-09-12T06:11:12;59.37;;;20.90;;
19024;SDS011;9645;51.448;6.260;2022-09-12T06:13:40;56.73;;;23.73;;
19024;SDS011;9645;51.448;6.260;2022-09-12T06:16:09;59.10;;;22.20;;
19024;SDS011;9645;51.448;6.260;2022-09-12T06:18:38;58.57;;;22.13;;
19024;SDS011;9645;51.448;6.260;2022-09-12T06:21:06;50.83;;;21.07;;
19024;SDS011;9645;51.448;6.260;2022-09-12T06:23:34;49.53;;;21.53;;
19024;SDS011;9645;51.448;6.260;2022-09-12T06:26:04;52.37;;;21.37;;
19024;SDS011;9645;51.448;6.260;2022-09-12T06:28:33;53.67;;;21.07;;
19024;SDS011;9645;51.448;6.260;2022-09-12T06:31:02;54.80;;;22.30;;
19024;SDS011;9645;51.448;6.260;2022-09-12T06:33:30;50.67;;;21.30;;
19024;SDS011;9645;51.448;6.260;2022-09-12T06:36:02;44.40;;;20.80;;
19024;SDS011;9645;51.448;6.260;2022-09-12T06:38:30;53.43;;;22.37;;
19024;SDS011;9645;51.448;6.260;2022-09-12T06:40:58;55.57;;;20.97;;
19024;SDS011;9645;51.448;6.260;2022-09-12T06:43:27;51.50;;;21.10;;
19024;SDS011;9645;51.448;6.260;2022-09-12T06:45:54;47.50;;;20.83;;
19024;SDS011;9645;51.448;6.260;2022-09-12T06:48:21;46.13;;;21.67;;
19024;SDS011;9645;51.448;6.260;2022-09-12T06:50:58;45.83;;;20.60;;
19024;SDS011;9645;51.448;6.260;2022-09-12T06:53:27;52.37;;;21.63;;
19024;SDS011;9645;51.448;6.260;2022-09-12T06:55:55;46.40;;;19.40;;
19024;SDS011;9645;51.448;6.260;2022-09-12T06:58:23;52.63;;;20.10;;
19024;SDS011;9645;51.448;6.260;2022-09-12T07:00:51;46.20;;;21.10;;
19024;SDS011;9645;51.448;6.260;2022-09-12T07:03:26;46.17;;;19.83;;
19024;SDS011;9645;51.448;6.260;2022-09-12T07:05:53;38.53;;;17.93;;
19024;SDS011;9645;51.448;6.260;2022-09-12T07:08:20;49.00;;;20.67;;
19024;SDS011;9645;51.448;6.260;2022-09-12T07:10:47;52.80;;;21.50;;
19024;SDS011;9645;51.448;6.260;2022-09-12T07:13:14;50.07;;;21.27;;
19024;SDS011;9645;51.448;6.260;2022-09-12T07:15:41;45.70;;;19.60;;
19024;SDS011;9645;51.448;6.260;2022-09-12T07:18:09;53.50;;;20.27;;
19024;SDS011;9645;51.448;6.260;2022-09-12T07:20:36;45.30;;;19.80;;
19024;SDS011;9645;51.448;6.260;2022-09-12T07:23:03;45.40;;;20.73;;
19024;SDS011;9645;51.448;6.260;2022-09-12T07:25:30;46.57;;;20.47;;
19024;SDS011;9645;51.448;6.260;2022-09-12T07:27:57;44.20;;;19.50;;
19024;SDS011;9645;51.448;6.260;2022-09-12T07:30:24;51.70;;;21.23;;
19024;SDS011;9645;51.448;6.260;2022-09-12T07:32:51;50.87;;;22.90;;
19024;SDS011;9645;51.448;6.260;2022-09-12T07:35:20;51.83;;;19.20;;
19024;SDS011;9645;51.448;6.260;2022-09-12T07:37:47;49.10;;;20.37;;
19024;SDS011;9645;51.448;6.260;2022-09-12T07:40:14;43.17;;;20.03;;
19024;SDS011;9645;51.448;6.260;2022-09-12T07:42:41;42.63;;;19.57;;
19024;SDS011;9645;51.448;6.260;2022-09-12T07:45:08;55.83;;;19.43;;
19024;SDS011;9645;51.448;6.260;2022-09-12T07:47:37;48.10;;;19.87;;
19024;SDS011;9645;51.448;6.260;2022-09-12T07:50:04;38.50;;;18.27;;
19024;SDS011;9645;51.448;6.260;2022-09-12T07:52:33;40.73;;;19.07;;
19024;SDS011;9645;51.448;6.260;2022-09-12T07:55:00;39.40;;;17.80;;
19024;SDS011;9645;51.448;6.260;2022-09-12T07:57:27;41.60;;;18.80;;
19024;SDS011;9645;51.448;6.260;2022-09-12T07:59:54;37.73;;;18.70;;
19024;SDS011;9645;51.448;6.260;2022-09-12T08:02:21;35.30;;;16.03;;
19024;SDS011;9645;51.448;6.260;2022-09-12T08:04:48;38.03;;;17.70;;
19024;SDS011;9645;51.448;6.260;2022-09-12T08:07:15;42.73;;;17.87;;
19024;SDS011;9645;51.448;6.260;2022-09-12T08:09:44;40.33;;;19.17;;
19024;SDS011;9645;51.448;6.260;2022-09-12T08:12:12;38.67;;;18.63;;
19024;SDS011;9645;51.448;6.260;2022-09-12T08:14:39;37.20;;;19.20;;
19024;SDS011;9645;51.448;6.260;2022-09-12T08:17:06;34.03;;;16.30;;
19024;SDS011;9645;51.448;6.260;2022-09-12T08:19:32;32.30;;;16.60;;
19024;SDS011;9645;51.448;6.260;2022-09-12T08:21:59;48.13;;;17.23;;
19024;SDS011;9645;51.448;6.260;2022-09-12T08:24:27;30.47;;;16.13;;
19024;SDS011;9645;51.448;6.260;2022-09-12T08:26:55;30.37;;;16.47;;
19024;SDS011;9645;51.448;6.260;2022-09-12T08:29:22;34.40;;;16.90;;
19024;SDS011;9645;51.448;6.260;2022-09-12T08:31:49;26.70;;;15.20;;
19024;SDS011;9645;51.448;6.260;2022-09-12T08:34:16;31.23;;;15.97;;
19024;SDS011;9645;51.448;6.260;2022-09-12T08:36:43;26.77;;;14.40;;
19024;SDS011;9645;51.448;6.260;2022-09-12T08:39:11;26.73;;;16.70;;
19024;SDS011;9645;51.448;6.260;2022-09-12T08:41:39;24.53;;;15.70;;
19024;SDS011;9645;51.448;6.260;2022-09-12T08:44:12;25.37;;;14.23;;
19024;SDS011;9645;51.448;6.260;2022-09-12T08:47:04;33.90;;;17.53;;
19024;SDS011;9645;51.448;6.260;2022-09-12T08:49:37;22.20;;;15.27;;
19024;SDS011;9645;51.448;6.260;2022-09-12T08:52:10;24.23;;;15.67;;
19024;SDS011;9645;51.448;6.260;2022-09-12T08:54:39;24.80;;;14.77;;
19024;SDS011;9645;51.448;6.260;2022-09-12T08:57:09;21.40;;;15.70;;
19024;SDS011;9645;51.448;6.260;2022-09-12T08:59:38;25.70;;;16.40;;
19024;SDS011;9645;51.448;6.260;2022-09-12T09:02:14;23.83;;;16.67;;
19024;SDS011;9645;51.448;6.260;2022-09-12T09:05:00;22.07;;;15.97;;
19024;SDS011;9645;51.448;6.260;2022-09-12T09:10:27;23.33;;;16.57;;
19024;SDS011;9645;51.448;6.260;2022-09-12T09:13:04;23.03;;;14.20;;
19024;SDS011;9645;51.448;6.260;2022-09-12T09:16:04;18.43;;;13.80;;
19024;SDS011;9645;51.448;6.260;2022-09-12T09:18:39;25.23;;;13.33;;
19024;SDS011;9645;51.448;6.260;2022-09-12T09:21:12;18.10;;;13.00;;
19024;SDS011;9645;51.448;6.260;2022-09-12T09:23:47;21.43;;;12.20;;
19024;SDS011;9645;51.448;6.260;2022-09-12T09:26:19;18.23;;;11.30;;
19024;SDS011;9645;51.448;6.260;2022-09-12T09:28:51;19.67;;;13.00;;
19024;SDS011;9645;51.448;6.260;2022-09-12T09:31:25;17.03;;;12.83;;
19024;SDS011;9645;51.448;6.260;2022-09-12T09:34:05;26.27;;;13.47;;
19024;SDS011;9645;51.448;6.260;2022-09-12T09:36:42;18.50;;;13.13;;
19024;SDS011;9645;51.448;6.260;2022-09-12T09:39:16;19.67;;;15.70;;
19024;SDS011;9645;51.448;6.260;2022-09-12T09:41:53;20.70;;;15.43;;
19024;SDS011;9645;51.448;6.260;2022-09-12T09:44:27;18.43;;;12.97;;
19024;SDS011;9645;51.448;6.260;2022-09-12T09:46:57;17.67;;;14.03;;
19024;SDS011;9645;51.448;6.260;2022-09-12T09:49:25;16.13;;;12.17;;
19024;SDS011;9645;51.448;6.260;2022-09-12T09:51:53;18.87;;;13.87;;
19024;SDS011;9645;51.448;6.260;2022-09-12T09:54:22;19.07;;;12.93;;
19024;SDS011;9645;51.448;6.260;2022-09-12T09:56:51;26.73;;;13.00;;
19024;SDS011;9645;51.448;6.260;2022-09-12T09:59:19;14.43;;;10.90;;
19024;SDS011;9645;51.448;6.260;2022-09-12T10:01:52;15.90;;;10.00;;
19024;SDS011;9645;51.448;6.260;2022-09-12T10:04:22;15.03;;;10.00;;
19024;SDS011;9645;51.448;6.260;2022-09-12T10:06:52;13.10;;;10.13;;
19024;SDS011;9645;51.448;6.260;2022-09-12T10:09:22;14.30;;;10.83;;
19024;SDS011;9645;51.448;6.260;2022-09-12T10:11:51;14.37;;;10.43;;
19024;SDS011;9645;51.448;6.260;2022-09-12T10:14:25;15.47;;;11.47;;
19024;SDS011;9645;51.448;6.260;2022-09-12T10:17:24;10.33;;;8.27;;
19024;SDS011;9645;51.448;6.260;2022-09-12T10:19:55;13.70;;;9.93;;
19024;SDS011;9645;51.448;6.260;2022-09-12T10:22:23;17.50;;;11.73;;
19024;SDS011;9645;51.448;6.260;2022-09-12T10:24:54;12.60;;;11.17;;
19024;SDS011;9645;51.448;6.260;2022-09-12T10:27:25;7.10;;;6.40;;
19024;SDS011;9645;51.448;6.260;2022-09-12T10:29:59;8.23;;;6.47;;
19024;SDS011;9645;51.448;6.260;2022-09-12T10:32:29;9.60;;;7.53;;
19024;SDS011;9645;51.448;6.260;2022-09-12T10:35:03;11.63;;;8.70;;
19024;SDS011;9645;51.448;6.260;2022-09-12T10:37:33;14.53;;;7.50;;
19024;SDS011;9645;51.448;6.260;2022-09-12T10:40:03;8.80;;;7.23;;
19024;SDS011;9645;51.448;6.260;2022-09-12T10:42:44;8.50;;;7.47;;
19024;SDS011;9645;51.448;6.260;2022-09-12T10:45:17;7.10;;;6.40;;
19024;SDS011;9645;51.448;6.260;2022-09-12T10:47:46;12.00;;;8.40;;
19024;SDS011;9645;51.448;6.260;2022-09-12T10:53:12;10.30;;;7.67;;
19024;SDS011;9645;51.448;6.260;2022-09-12T10:55:46;6.90;;;6.20;;
19024;SDS011;9645;51.448;6.260;2022-09-12T11:01:26;7.50;;;5.17;;
19024;SDS011;9645;51.448;6.260;2022-09-12T11:07:23;3.77;;;3.50;;
19024;SDS011;9645;51.448;6.260;2022-09-12T11:10:01;4.47;;;4.17;;
19024;SDS011;9645;51.448;6.260;2022-09-12T11:12:39;5.13;;;4.23;;
19024;SDS011;9645;51.448;6.260;2022-09-12T11:15:17;7.30;;;4.30;;
19024;SDS011;9645;51.448;6.260;2022-09-12T11:17:59;3.83;;;3.60;;
19024;SDS011;9645;51.448;6.260;2022-09-12T11:20:43;3.00;;;2.80;;
19024;SDS011;9645;51.448;6.260;2022-09-12T11:26:31;4.93;;;3.53;;
19024;SDS011;9645;51.448;6.260;2022-09-12T11:29:09;4.30;;;3.90;;
19024;SDS011;9645;51.448;6.260;2022-09-12T11:31:50;4.57;;;4.17;;
19024;SDS011;9645;51.448;6.260;2022-09-12T11:34:34;6.13;;;4.07;;
19024;SDS011;9645;51.448;6.260;2022-09-12T11:37:18;4.20;;;3.80;;
19024;SDS011;9645;51.448;6.260;2022-09-12T11:39:52;4.30;;;3.90;;
19024;SDS011;9645;51.448;6.260;2022-09-12T11:42:24;4.73;;;4.30;;
19024;SDS011;9645;51.448;6.260;2022-09-12T11:44:58;5.47;;;4.93;;
19024;SDS011;9645;51.448;6.260;2022-09-12T11:47:30;6.73;;;5.10;;
19024;SDS011;9645;51.448;6.260;2022-09-12T11:50:01;7.80;;;4.47;;
19024;SDS011;9645;51.448;6.260;2022-09-12T11:52:32;5.50;;;4.37;;
19024;SDS011;9645;51.448;6.260;2022-09-12T11:55:04;3.83;;;3.50;;
19024;SDS011;9645;51.448;6.260;2022-09-12T11:57:38;7.13;;;3.30;;
19024;SDS011;9645;51.448;6.260;2022-09-12T12:00:14;5.93;;;3.83;;
19024;SDS011;9645;51.448;6.260;2022-09-12T12:02:47;4.63;;;3.40;;
19024;SDS011;9645;51.448;6.260;2022-09-12T12:05:23;5.10;;;3.40;;
19024;SDS011;9645;51.448;6.260;2022-09-12T12:07:54;3.87;;;3.47;;
19024;SDS011;9645;51.448;6.260;2022-09-12T12:10:23;7.53;;;3.63;;
19024;SDS011;9645;51.448;6.260;2022-09-12T12:12:58;6.87;;;4.10;;
19024;SDS011;9645;51.448;6.260;2022-09-12T12:15:28;3.63;;;3.33;;
19024;SDS011;9645;51.448;6.260;2022-09-12T12:18:00;3.57;;;3.27;;
19024;SDS011;9645;51.448;6.260;2022-09-12T12:20:28;5.70;;;3.80;;
19024;SDS011;9645;51.448;6.260;2022-09-12T12:22:56;3.77;;;3.47;;
19024;SDS011;9645;51.448;6.260;2022-09-12T12:25:25;7.73;;;3.80;;
19024;SDS011;9645;51.448;6.260;2022-09-12T12:28:05;3.87;;;3.53;;
19024;SDS011;9645;51.448;6.260;2022-09-12T12:48:49;3.00;;;2.70;;
19024;SDS011;9645;51.448;6.260;2022-09-12T12:57:33;4.60;;;3.00;;
19024;SDS011;9645;51.448;6.260;2022-09-12T13:03:09;4.90;;;3.07;;
19024;SDS011;9645;51.448;6.260;2022-09-12T13:05:47;5.63;;;3.10;;
19024;SDS011;9645;51.448;6.260;2022-09-12T13:08:25;5.23;;;3.70;;
19024;SDS011;9645;51.448;6.260;2022-09-12T13:10:57;3.37;;;3.07;;
19024;SDS011;9645;51.448;6.260;2022-09-12T13:13:27;3.10;;;2.87;;
19024;SDS011;9645;51.448;6.260;2022-09-12T13:15:59;5.63;;;3.03;;
19024;SDS011;9645;51.448;6.260;2022-09-12T13:18:26;5.03;;;3.30;;
19024;SDS011;9645;51.448;6.260;2022-09-12T13:21:03;2.90;;;2.70;;
19024;SDS011;9645;51.448;6.260;2022-09-12T13:23:35;2.80;;;2.60;;
19024;SDS011;9645;51.448;6.260;2022-09-12T13:26:03;3.20;;;2.90;;
19024;SDS011;9645;51.448;6.260;2022-09-12T13:28:35;25.43;;;3.47;;
19024;SDS011;9645;51.448;6.260;2022-09-12T13:31:06;174.70;;;7.30;;
19024;SDS011;9645;51.448;6.260;2022-09-12T13:33:41;5.03;;;3.07;;
19024;SDS011;9645;51.448;6.260;2022-09-12T13:36:32;4.57;;;2.60;;
19024;SDS011;9645;51.448;6.260;2022-09-12T13:39:31;5.87;;;3.00;;
19024;SDS011;9645;51.448;6.260;2022-09-12T13:42:15;4.23;;;3.00;;
19024;SDS011;9645;51.448;6.260;2022-09-12T13:45:06;3.43;;;3.13;;
19024;SDS011;9645;51.448;6.260;2022-09-12T13:47:39;4.43;;;3.17;;
19024;SDS011;9645;51.448;6.260;2022-09-12T13:50:12;3.87;;;3.23;;
19024;SDS011;9645;51.448;6.260;2022-09-12T13:52:46;3.47;;;3.17;;
19024;SDS011;9645;51.448;6.260;2022-09-12T13:55:25;7.27;;;3.33;;
19024;SDS011;9645;51.448;6.260;2022-09-12T13:57:56;6.40;;;3.20;;
19024;SDS011;9645;51.448;6.260;2022-09-12T14:00:25;5.90;;;3.60;;
19024;SDS011;9645;51.448;6.260;2022-09-12T14:02:54;4.03;;;3.00;;
19024;SDS011;9645;51.448;6.260;2022-09-12T14:05:35;4.60;;;3.60;;
19024;SDS011;9645;51.448;6.260;2022-09-12T14:08:06;4.23;;;3.83;;
19024;SDS011;9645;51.448;6.260;2022-09-12T14:10:38;5.00;;;3.70;;
19024;SDS011;9645;51.448;6.260;2022-09-12T14:13:09;4.50;;;4.10;;
19024;SDS011;9645;51.448;6.260;2022-09-12T14:15:37;8.63;;;3.87;;
19024;SDS011;9645;51.448;6.260;2022-09-12T14:18:18;5.27;;;3.93;;
19024;SDS011;9645;51.448;6.260;2022-09-12T14:20:48;4.00;;;3.60;;
19024;SDS011;9645;51.448;6.260;2022-09-12T14:23:25;5.13;;;3.70;;
19024;SDS011;9645;51.448;6.260;2022-09-12T14:25:56;5.27;;;4.17;;
19024;SDS011;9645;51.448;6.260;2022-09-12T14:28:26;4.10;;;3.70;;
19024;SDS011;9645;51.448;6.260;2022-09-12T14:31:02;6.30;;;3.90;;
19024;SDS011;9645;51.448;6.260;2022-09-12T14:33:31;7.23;;;4.30;;
19024;SDS011;9645;51.448;6.260;2022-09-12T14:36:15;4.73;;;4.33;;
19024;SDS011;9645;51.448;6.260;2022-09-12T14:38:48;6.70;;;3.80;;
19024;SDS011;9645;51.448;6.260;2022-09-12T14:41:20;6.53;;;4.10;;
19024;SDS011;9645;51.448;6.260;2022-09-12T14:43:50;6.20;;;4.20;;
19024;SDS011;9645;51.448;6.260;2022-09-12T14:46:21;7.17;;;4.47;;
19024;SDS011;9645;51.448;6.260;2022-09-12T14:48:52;4.80;;;4.07;;
19024;SDS011;9645;51.448;6.260;2022-09-12T14:51:24;6.77;;;3.70;;
19024;SDS011;9645;51.448;6.260;2022-09-12T14:53:54;6.57;;;4.20;;
19024;SDS011;9645;51.448;6.260;2022-09-12T14:56:35;3.73;;;3.43;;
19024;SDS011;9645;51.448;6.260;2022-09-12T14:59:19;5.40;;;3.77;;
19024;SDS011;9645;51.448;6.260;2022-09-12T15:04:47;4.53;;;3.63;;
19024;SDS011;9645;51.448;6.260;2022-09-12T15:07:15;6.37;;;3.70;;
19024;SDS011;9645;51.448;6.260;2022-09-12T15:09:55;6.30;;;3.97;;
19024;SDS011;9645;51.448;6.260;2022-09-12T15:12:23;4.60;;;4.17;;
19024;SDS011;9645;51.448;6.260;2022-09-12T15:15:13;6.40;;;4.60;;
19024;SDS011;9645;51.448;6.260;2022-09-12T15:17:42;7.17;;;4.33;;
19024;SDS011;9645;51.448;6.260;2022-09-12T15:20:09;7.67;;;4.40;;
19024;SDS011;9645;51.448;6.260;2022-09-12T15:22:37;11.60;;;3.67;;
19024;SDS011;9645;51.448;6.260;2022-09-12T15:25:05;6.13;;;3.73;;
19024;SDS011;9645;51.448;6.260;2022-09-12T15:27:32;5.20;;;4.03;;
19024;SDS011;9645;51.448;6.260;2022-09-12T15:29:59;5.00;;;4.13;;
19024;SDS011;9645;51.448;6.260;2022-09-12T15:32:28;21.70;;;3.83;;
19024;SDS011;9645;51.448;6.260;2022-09-12T15:34:55;3.93;;;3.60;;
19024;SDS011;9645;51.448;6.260;2022-09-12T15:37:22;9.83;;;4.13;;
19024;SDS011;9645;51.448;6.260;2022-09-12T15:39:50;10.33;;;4.40;;
19024;SDS011;9645;51.448;6.260;2022-09-12T15:42:18;8.33;;;4.70;;
19024;SDS011;9645;51.448;6.260;2022-09-12T15:44:53;5.87;;;4.17;;
19024;SDS011;9645;51.448;6.260;2022-09-12T15:47:20;4.50;;;4.10;;
19024;SDS011;9645;51.448;6.260;2022-09-12T15:49:49;6.27;;;5.00;;
19024;SDS011;9645;51.448;6.260;2022-09-12T15:52:16;5.00;;;4.50;;
19024;SDS011;9645;51.448;6.260;2022-09-12T15:54:43;4.10;;;3.70;;
19024;SDS011;9645;51.448;6.260;2022-09-12T15:57:10;5.93;;;3.90;;
19024;SDS011;9645;51.448;6.260;2022-09-12T15:59:37;5.00;;;4.27;;